Time;durP1;ratioP1;P1;durP2;ratioP2;P2;SDS_P1;SDS_P2;PMS_P1;PMS_P2;Temp;Humidity;BMP_temperature;BMP_pressure;BME280_temperature;BME280_humidity;BME280_pressure;Samples;Min_cycle;Max_cycle;Signal;HPM_P1;HPM_P2
2021/03/08 00:00:33;;;;;;;12.98;3.45;;;27.40;22.50;;;;;;5041127;28;20073;-65
2021/03/08 00:03:00;;;;;;;10.20;2.63;;;27.30;22.60;;;;;;5039198;28;20074;-62
2021/03/08 00:05:27;;;;;;;20.20;6.13;;;27.30;22.80;;;;;;5040388;28;20111;-62
2021/03/08 00:07:54;;;;;;;14.60;4.18;;;27.20;23.30;;;;;;5039997;28;20189;-62
2021/03/08 00:10:21;;;;;;;13.73;4.95;;;27.20;23.00;;;;;;5039306;28;20081;-63
2021/03/08 00:12:49;;;;;;;13.13;4.18;;;27.20;23.50;;;;;;5037736;28;20070;-64
2021/03/08 00:15:17;;;;;;;18.83;5.63;;;27.20;23.90;;;;;;5056134;28;20140;-63
2021/03/08 00:17:45;;;;;;;9.73;4.85;;;27.20;23.20;;;;;;5038573;28;20123;-64
2021/03/08 00:20:15;;;;;;;12.90;4.93;;;27.10;23.30;;;;;;5040232;28;20074;-61
2021/03/08 00:22:43;;;;;;;17.02;3.72;;;27.00;23.10;;;;;;5053495;28;20077;-65
2021/03/08 00:25:17;;;;;;;12.75;3.20;;;26.90;23.20;;;;;;5039182;28;20588;-61
2021/03/08 00:27:44;;;;;;;8.75;3.70;;;26.90;23.10;;;;;;5038340;28;20191;-63
2021/03/08 00:30:11;;;;;;;17.17;5.32;;;26.80;23.40;;;;;;5034150;28;20093;-64
2021/03/08 00:32:39;;;;;;;14.05;3.63;;;26.80;23.40;;;;;;5033832;28;20161;-60
2021/03/08 00:35:07;;;;;;;10.05;2.80;;;26.70;23.80;;;;;;5034506;28;20078;-61
2021/03/08 00:37:34;;;;;;;16.92;3.03;;;26.70;24.20;;;;;;5037219;28;20077;-62
2021/03/08 00:40:05;;;;;;;14.70;3.00;;;26.70;24.30;;;;;;5037655;28;23157;-60
2021/03/08 00:42:31;;;;;;;11.23;2.40;;;26.60;24.20;;;;;;5035715;28;20084;-64
2021/03/08 00:44:58;;;;;;;11.18;3.03;;;26.60;24.10;;;;;;5034031;28;20066;-64
2021/03/08 00:47:25;;;;;;;16.67;3.75;;;26.50;24.10;;;;;;5038653;28;20069;-64
2021/03/08 00:49:52;;;;;;;12.20;4.72;;;26.50;24.00;;;;;;5034734;28;20101;-64
2021/03/08 00:52:19;;;;;;;9.80;3.47;;;26.40;24.20;;;;;;5041661;28;20196;-64
2021/03/08 00:54:45;;;;;;;12.07;2.95;;;26.30;24.10;;;;;;5039785;28;20078;-64
2021/03/08 00:57:12;;;;;;;14.98;3.47;;;26.20;24.20;;;;;;5034723;28;20085;-63
2021/03/08 00:59:39;;;;;;;16.23;3.45;;;26.20;24.30;;;;;;5036151;28;20077;-63
2021/03/08 01:02:06;;;;;;;13.10;3.15;;;26.10;24.40;;;;;;5039230;28;20069;-63
2021/03/08 01:04:33;;;;;;;9.93;3.10;;;26.00;24.70;;;;;;5038178;28;20110;-64
2021/03/08 01:07:00;;;;;;;9.55;2.80;;;26.00;24.70;;;;;;5036522;28;20234;-63
2021/03/08 01:09:27;;;;;;;10.82;2.50;;;25.90;25.20;;;;;;5042931;28;20094;-62
2021/03/08 01:11:54;;;;;;;12.05;3.20;;;25.80;24.70;;;;;;5043137;28;20090;-63
2021/03/08 01:14:21;;;;;;;13.38;3.35;;;25.80;24.70;;;;;;5042782;28;20116;-63
2021/03/08 01:16:47;;;;;;;14.07;3.10;;;25.70;24.90;;;;;;5039105;28;20086;-65
2021/03/08 01:19:14;;;;;;;8.90;3.10;;;25.70;25.10;;;;;;5040556;28;20452;-64
2021/03/08 01:21:41;;;;;;;13.10;4.15;;;25.60;25.10;;;;;;5039623;28;20124;-64
2021/03/08 01:24:09;;;;;;;21.13;4.10;;;25.60;25.30;;;;;;5041484;28;20065;-64
2021/03/08 01:26:36;;;;;;;18.08;4.70;;;25.50;25.50;;;;;;5036955;28;20112;-63
2021/03/08 01:29:03;;;;;;;15.50;4.15;;;25.50;25.60;;;;;;5039924;28;20504;-65
2021/03/08 01:31:30;;;;;;;18.95;4.20;;;25.50;25.60;;;;;;5040410;28;20497;-63
2021/03/08 01:33:56;;;;;;;13.95;4.80;;;25.40;26.00;;;;;;5038882;28;20077;-63
2021/03/08 01:36:23;;;;;;;17.67;4.55;;;25.40;26.00;;;;;;5032914;28;20078;-64
2021/03/08 01:38:49;;;;;;;10.57;3.88;;;25.30;26.00;;;;;;5033797;28;20426;-63
2021/03/08 01:41:16;;;;;;;16.80;4.05;;;25.20;26.10;;;;;;5035100;28;20586;-63
2021/03/08 01:43:43;;;;;;;17.52;4.43;;;25.10;26.30;;;;;;5035895;28;20131;-63
2021/03/08 01:46:10;;;;;;;15.70;5.35;;;25.00;26.40;;;;;;5043099;28;20078;-63
2021/03/08 01:48:36;;;;;;;15.25;4.55;;;25.00;26.60;;;;;;5036460;28;20097;-64
2021/03/08 01:51:05;;;;;;;24.52;5.15;;;25.00;26.80;;;;;;5039042;28;20574;-63
2021/03/08 01:53:34;;;;;;;23.65;5.28;;;24.90;26.90;;;;;;5040866;28;20113;-68
2021/03/08 01:56:02;;;;;;;23.52;5.03;;;24.90;27.00;;;;;;5037796;28;20147;-64
2021/03/08 01:58:28;;;;;;;17.92;6.10;;;24.90;27.30;;;;;;5041390;28;20506;-62
2021/03/08 02:00:55;;;;;;;23.33;5.82;;;24.80;27.50;;;;;;5038299;28;20081;-63
2021/03/08 02:03:23;;;;;;;19.83;5.70;;;24.70;27.30;;;;;;5041575;28;20066;-64
2021/03/08 02:05:50;;;;;;;30.52;6.57;;;24.60;27.40;;;;;;5034287;28;20078;-63
2021/03/08 02:08:21;;;;;;;24.42;7.22;;;24.60;27.60;;;;;;5033737;28;20097;-61
2021/03/08 02:10:49;;;;;;;24.90;7.82;;;24.50;27.60;;;;;;5054096;28;20629;-63
2021/03/08 02:13:31;;;;;;;28.08;11.05;;;24.50;27.90;;;;;;5040135;28;20073;-64
2021/03/08 02:16:19;;;;;;;31.25;14.43;;;24.50;28.10;;;;;;5036931;28;20081;-63
2021/03/08 02:19:10;;;;;;;28.73;12.60;;;24.40;28.50;;;;;;5036025;28;20181;-63
2021/03/08 02:22:06;;;;;;;29.45;10.38;;;24.30;28.70;;;;;;5032018;28;20088;-63
2021/03/08 02:25:03;;;;;;;24.80;8.20;;;24.20;28.80;;;;;;5041293;28;20132;-62
2021/03/08 02:27:53;;;;;;;25.73;10.07;;;24.10;28.80;;;;;;5035844;28;20073;-63
2021/03/08 02:30:44;;;;;;;24.02;9.70;;;24.10;29.00;;;;;;5037409;28;20096;-64
2021/03/08 02:33:15;;;;;;;26.30;9.60;;;24.00;29.50;;;;;;5038158;28;20073;-63
2021/03/08 02:35:46;;;;;;;29.35;9.02;;;23.90;29.60;;;;;;5036788;28;20080;-64
2021/03/08 02:38:18;;;;;;;34.42;8.80;;;23.90;30.30;;;;;;5038019;28;20069;-63
2021/03/08 02:40:56;;;;;;;34.78;8.85;;;23.90;30.80;;;;;;5030763;28;20082;-64
2021/03/08 02:43:30;;;;;;;28.00;8.32;;;23.80;31.10;;;;;;5038316;28;20104;-63
2021/03/08 02:46:04;;;;;;;27.73;8.93;;;23.80;31.60;;;;;;5035710;28;20191;-64
2021/03/08 02:48:34;;;;;;;32.55;8.27;;;23.70;30.90;;;;;;5040311;28;20551;-64
2021/03/08 02:51:05;;;;;;;29.00;8.35;;;23.60;31.30;;;;;;5037889;28;20070;-64
2021/03/08 02:53:34;;;;;;;42.25;9.13;;;23.60;31.30;;;;;;5036973;28;20112;-62
2021/03/08 02:56:07;;;;;;;33.13;8.55;;;23.60;31.20;;;;;;5035996;28;20128;-64
2021/03/08 02:58:36;;;;;;;39.00;9.98;;;23.50;31.10;;;;;;5037748;28;20084;-63
2021/03/08 03:01:04;;;;;;;43.50;10.18;;;23.50;30.60;;;;;;5035299;28;20074;-63
2021/03/08 03:03:34;;;;;;;42.55;11.20;;;23.50;30.60;;;;;;5040763;28;20079;-64
2021/03/08 03:06:02;;;;;;;44.67;11.40;;;23.50;30.80;;;;;;5039291;28;20474;-66
2021/03/08 03:08:30;;;;;;;39.15;8.25;;;23.50;31.10;;;;;;5035338;28;20090;-64
2021/03/08 03:10:57;;;;;;;32.60;7.10;;;23.60;31.20;;;;;;5037069;28;20105;-65
2021/03/08 03:13:25;;;;;;;36.97;7.38;;;23.60;31.20;;;;;;5039468;28;20442;-65
2021/03/08 03:15:53;;;;;;;34.92;7.30;;;23.70;31.10;;;;;;5035450;28;20085;-67
2021/03/08 03:18:22;;;;;;;32.63;8.30;;;23.70;31.10;;;;;;5035508;28;20127;-65
2021/03/08 03:20:50;;;;;;;43.55;7.90;;;23.70;30.90;;;;;;5037524;28;20077;-64
2021/03/08 03:23:22;;;;;;;32.95;7.65;;;23.70;30.80;;;;;;5038894;28;20190;-65
2021/03/08 03:25:50;;;;;;;35.30;9.63;;;23.80;30.80;;;;;;5035879;28;20426;-65
2021/03/08 03:28:17;;;;;;;46.08;9.52;;;23.80;30.60;;;;;;5039485;28;20093;-65
2021/03/08 03:30:45;;;;;;;31.48;8.20;;;23.80;30.80;;;;;;5039557;28;20105;-64
2021/03/08 03:33:14;;;;;;;30.55;7.82;;;23.80;30.70;;;;;;5056186;28;20070;-65
2021/03/08 03:35:40;;;;;;;34.35;8.77;;;23.80;30.80;;;;;;5036726;28;20085;-64
2021/03/08 03:38:09;;;;;;;41.08;8.88;;;23.80;31.00;;;;;;5037326;28;20074;-65
2021/03/08 03:40:36;;;;;;;37.88;8.43;;;23.80;31.10;;;;;;5039941;28;20070;-65
2021/03/08 03:43:04;;;;;;;41.83;8.10;;;23.70;31.00;;;;;;5038295;28;20077;-64
2021/03/08 03:45:31;;;;;;;44.85;8.13;;;23.70;31.20;;;;;;5036362;28;20094;-65
2021/03/08 03:47:57;;;;;;;41.55;7.30;;;23.70;31.40;;;;;;5038394;28;20172;-65
2021/03/08 03:50:26;;;;;;;41.58;7.15;;;23.60;31.70;;;;;;5036578;28;20089;-66
2021/03/08 03:52:52;;;;;;;40.60;5.80;;;23.60;31.90;;;;;;5038964;28;20193;-64
2021/03/08 03:55:20;;;;;;;33.90;5.00;;;23.60;32.30;;;;;;5034194;28;20088;-65
2021/03/08 03:57:52;;;;;;;33.13;5.00;;;23.50;32.70;;;;;;5035766;28;20168;-65
2021/03/08 04:00:23;;;;;;;22.50;5.05;;;23.50;33.20;;;;;;5051906;28;20123;-65
2021/03/08 04:03:11;;;;;;;27.83;4.90;;;23.50;33.70;;;;;;5043355;28;20169;-64
2021/03/08 04:05:40;;;;;;;29.55;4.97;;;23.50;34.00;;;;;;5052750;28;20070;-66
2021/03/08 04:08:10;;;;;;;21.77;4.75;;;23.40;34.40;;;;;;5040248;28;20561;-65
2021/03/08 04:10:39;;;;;;;19.10;4.22;;;23.40;34.60;;;;;;5038244;28;20081;-65
2021/03/08 04:13:10;;;;;;;24.98;5.13;;;23.40;35.00;;;;;;5036538;28;20081;-65
2021/03/08 04:15:38;;;;;;;35.13;5.13;;;23.20;35.20;;;;;;5036578;28;20078;-65
2021/03/08 04:18:06;;;;;;;20.42;5.78;;;23.00;35.50;;;;;;5035653;28;20074;-64
2021/03/08 04:20:34;;;;;;;29.67;6.93;;;23.00;35.60;;;;;;5039914;28;20099;-64
2021/03/08 04:23:07;;;;;;;37.58;7.72;;;22.90;35.10;;;;;;5038363;28;20132;-66
2021/03/08 04:25:35;;;;;;;34.88;6.45;;;23.00;34.90;;;;;;5038844;28;20530;-65
2021/03/08 04:28:03;;;;;;;28.75;7.60;;;23.00;34.50;;;;;;5037080;28;20102;-65
2021/03/08 04:30:31;;;;;;;27.88;4.65;;;23.00;34.40;;;;;;5037835;28;20104;-66
2021/03/08 04:32:59;;;;;;;21.38;3.45;;;22.90;34.50;;;;;;5036849;28;20073;-64
2021/03/08 04:35:30;;;;;;;8.90;2.72;;;22.80;34.80;;;;;;5041159;28;20077;-67
2021/03/08 04:37:59;;;;;;;12.93;2.45;;;22.70;34.90;;;;;;5027206;28;20550;-66
2021/03/08 04:40:26;;;;;;;15.38;2.65;;;22.60;35.10;;;;;;5027800;28;20135;-67
2021/03/08 04:42:54;;;;;;;17.45;3.00;;;22.50;35.30;;;;;;5042702;28;20080;-66
2021/03/08 04:45:21;;;;;;;9.52;3.03;;;22.50;35.20;;;;;;5041507;28;20169;-66
2021/03/08 04:47:49;;;;;;;16.42;4.32;;;22.50;35.10;;;;;;5038276;28;20152;-65
2021/03/08 04:50:16;;;;;;;11.30;2.95;;;22.50;35.10;;;;;;5043021;28;20078;-67
2021/03/08 04:52:53;;;;;;;8.60;2.50;;;22.50;33.50;;;;;;5037696;28;20567;-68
2021/03/08 04:55:24;;;;;;;21.27;9.65;;;22.40;33.50;;;;;;5043426;28;20081;-65
2021/03/08 04:57:50;;;;;;;16.35;4.57;;;22.40;32.60;;;;;;5043725;28;20077;-67
2021/03/08 05:00:19;;;;;;;8.25;3.47;;;22.30;32.40;;;;;;5039185;28;20070;-66
2021/03/08 05:02:47;;;;;;;15.85;3.22;;;22.30;32.20;;;;;;5040081;28;20124;-68
2021/03/08 05:05:15;;;;;;;10.27;2.53;;;22.30;32.40;;;;;;5039283;28;20070;-69
2021/03/08 05:07:44;;;;;;;8.18;2.45;;;22.30;32.60;;;;;;5043264;28;20066;-67
2021/03/08 05:10:16;;;;;;;5.70;2.40;;;22.30;31.10;;;;;;5042865;28;20130;-67
2021/03/08 05:12:43;;;;;;;7.43;2.25;;;22.30;31.10;;;;;;5042071;28;20069;-65
2021/03/08 05:15:12;;;;;;;10.30;3.03;;;22.30;31.20;;;;;;5036939;28;20080;-66
2021/03/08 05:17:40;;;;;;;13.35;5.85;;;22.20;31.20;;;;;;5042189;28;20541;-65
2021/03/08 05:20:14;;;;;;;20.35;6.32;;;22.20;30.80;;;;;;5043925;28;20074;-65
2021/03/08 05:22:43;;;;;;;18.42;4.68;;;22.10;30.20;;;;;;5043648;28;20152;-66
2021/03/08 05:25:12;;;;;;;16.50;3.90;;;22.10;30.60;;;;;;5041819;28;20562;-66
2021/03/08 05:27:40;;;;;;;11.43;2.72;;;22.10;30.70;;;;;;5042395;28;20095;-65
2021/03/08 05:30:08;;;;;;;14.45;2.95;;;22.00;30.60;;;;;;5038253;28;20065;-64
2021/03/08 05:32:37;;;;;;;10.98;2.50;;;22.00;30.70;;;;;;5038505;28;20070;-66
2021/03/08 05:35:04;;;;;;;5.55;2.20;;;21.90;31.00;;;;;;5041097;28;20103;-64
2021/03/08 05:37:33;;;;;;;15.63;2.90;;;21.90;31.10;;;;;;5061224;28;20173;-64
2021/03/08 05:40:02;;;;;;;12.43;2.45;;;21.80;30.90;;;;;;5038140;28;20077;-64
2021/03/08 05:42:34;;;;;;;24.85;3.10;;;21.80;31.10;;;;;;5040580;28;20115;-62
2021/03/08 05:45:19;;;;;;;25.90;3.97;;;21.70;31.10;;;;;;5041495;28;20074;-64
2021/03/08 05:48:07;;;;;;;26.20;4.38;;;21.70;31.20;;;;;;5037817;28;20074;-64
2021/03/08 05:50:53;;;;;;;20.08;6.13;;;21.70;31.20;;;;;;5038945;28;20080;-67
2021/03/08 05:53:42;;;;;;;26.05;9.70;;;21.70;31.40;;;;;;5039166;28;20159;-65
2021/03/08 05:56:45;;;;;;;29.30;6.07;;;21.70;31.50;;;;;;5041400;28;20073;-64
2021/03/08 05:59:15;;;;;;;54.30;8.68;;;21.70;32.20;;;;;;5053698;28;20155;-63
2021/03/08 06:02:00;;;;;;;132.80;13.18;;;21.70;32.40;;;;;;5043728;28;20414;-64
2021/03/08 06:05:05;;;;;;;32.03;8.52;;;21.70;33.00;;;;;;5037987;28;20078;-67
2021/03/08 06:08:06;;;;;;;18.42;6.82;;;21.60;33.20;;;;;;5046169;28;20079;-64
2021/03/08 06:10:46;;;;;;;176.23;16.65;;;21.60;33.60;;;;;;5038982;28;20144;-62
2021/03/08 06:13:19;;;;;;;59.50;8.73;;;21.50;34.00;;;;;;5041337;28;20529;-65
2021/03/08 06:15:54;;;;;;;29.52;6.30;;;21.50;34.60;;;;;;5044977;28;20093;-67
2021/03/08 06:18:23;;;;;;;17.52;5.57;;;21.50;34.00;;;;;;5049119;28;20088;-66
2021/03/08 06:20:55;;;;;;;18.35;5.18;;;21.50;34.00;;;;;;5045582;28;20082;-67
2021/03/08 06:23:26;;;;;;;27.67;5.18;;;21.50;34.20;;;;;;5049024;28;20100;-66
2021/03/08 06:25:54;;;;;;;19.65;5.40;;;21.50;34.30;;;;;;5045033;28;20168;-66
2021/03/08 06:28:22;;;;;;;26.15;4.60;;;21.50;34.80;;;;;;5048211;28;20189;-66
2021/03/08 06:30:50;;;;;;;24.88;4.40;;;21.50;35.10;;;;;;5044312;28;20074;-66
2021/03/08 06:33:18;;;;;;;23.20;4.10;;;21.50;35.50;;;;;;5046451;28;20073;-65
2021/03/08 06:35:45;;;;;;;27.70;5.05;;;21.40;35.80;;;;;;5041993;28;20066;-66
2021/03/08 06:38:13;;;;;;;22.67;5.00;;;21.30;35.70;;;;;;5045111;28;20081;-65
2021/03/08 06:40:40;;;;;;;21.83;5.72;;;21.30;36.40;;;;;;5042124;28;20596;-64
2021/03/08 06:43:06;;;;;;;35.30;6.15;;;21.30;37.60;;;;;;5039775;28;20139;-67
2021/03/08 06:45:33;;;;;;;29.60;6.85;;;21.30;39.10;;;;;;5042525;28;20180;-64
2021/03/08 06:47:59;;;;;;;27.63;6.65;;;21.30;40.80;;;;;;5039345;28;20128;-64
2021/03/08 06:50:26;;;;;;;26.67;5.78;;;21.20;42.30;;;;;;5033680;28;20161;-65
2021/03/08 06:52:53;;;;;;;25.58;7.28;;;21.20;42.90;;;;;;5042954;28;20164;-65
2021/03/08 06:55:23;;;;;;;30.25;7.20;;;21.20;43.90;;;;;;5036093;28;20132;-65
2021/03/08 06:57:50;;;;;;;30.23;6.82;;;21.20;44.20;;;;;;5038037;28;20493;-66
2021/03/08 07:00:17;;;;;;;25.13;5.95;;;21.20;44.50;;;;;;5037438;28;20074;-65
2021/03/08 07:02:45;;;;;;;25.90;6.28;;;21.10;45.40;;;;;;5038385;28;20071;-65
2021/03/08 07:05:14;;;;;;;30.10;5.93;;;21.00;46.40;;;;;;5036700;28;20082;-65
2021/03/08 07:07:59;;;;;;;23.58;6.30;;;21.00;46.80;;;;;;5038686;28;20081;-65
2021/03/08 07:10:40;;;;;;;32.72;6.88;;;21.00;47.00;;;;;;5037465;28;20086;-66
2021/03/08 07:13:09;;;;;;;31.88;6.95;;;20.90;47.30;;;;;;5038690;28;20074;-65
2021/03/08 07:15:56;;;;;;;28.02;6.53;;;20.80;47.60;;;;;;5035551;28;20557;-67
2021/03/08 07:18:23;;;;;;;;;;;20.80;47.90;;;;;;5041716;28;20101;-65
2021/03/08 07:21:12;;;;;;;34.65;7.55;;;20.70;48.60;;;;;;5053218;28;20453;-65
2021/03/08 07:23:53;;;;;;;22.45;5.97;;;20.70;49.00;;;;;;5038756;28;20107;-66
2021/03/08 07:26:21;;;;;;;24.02;5.00;;;20.70;49.60;;;;;;5041336;28;20097;-65
2021/03/08 07:29:07;;;;;;;22.52;5.85;;;20.60;50.10;;;;;;5039713;28;20103;-65
2021/03/08 07:31:39;;;;;;;29.50;5.03;;;20.60;50.30;;;;;;5036396;28;20554;-65
2021/03/08 07:34:09;;;;;;;27.98;6.20;;;20.60;50.40;;;;;;5037414;28;20076;-66
2021/03/08 07:36:42;;;;;;;28.02;6.55;;;20.60;50.60;;;;;;5034766;28;20123;-65
2021/03/08 07:39:17;;;;;;;22.80;6.40;;;20.60;51.20;;;;;;5037582;28;20085;-66
2021/03/08 07:42:09;;;;;;;29.90;6.78;;;20.60;50.90;;;;;;5039275;28;20073;-65
2021/03/08 07:44:52;;;;;;;28.40;7.43;;;20.60;51.10;;;;;;5035268;28;20131;-68
2021/03/08 07:47:21;;;;;;;17.77;4.82;;;20.50;49.10;;;;;;5039111;28;20156;-65
2021/03/08 07:49:48;;;;;;;18.35;3.00;;;20.50;45.60;;;;;;5037275;28;20121;-65
2021/03/08 07:52:19;;;;;;;11.00;3.42;;;20.50;41.50;;;;;;5036073;28;20415;-65
2021/03/08 07:55:03;;;;;;;14.65;3.10;;;20.50;40.10;;;;;;5034205;28;20531;-64
2021/03/08 07:57:31;;;;;;;12.30;3.10;;;20.50;39.30;;;;;;5036428;28;20137;-65
2021/03/08 07:59:58;;;;;;;11.70;2.90;;;20.40;38.80;;;;;;5033975;28;20156;-66
2021/03/08 08:02:24;;;;;;;10.00;3.00;;;20.40;38.60;;;;;;5034263;28;20098;-65
2021/03/08 08:04:52;;;;;;;10.60;2.80;;;20.30;38.20;;;;;;5037664;28;20074;-65
2021/03/08 08:07:23;;;;;;;11.10;2.40;;;20.40;37.80;;;;;;5039022;28;20469;-65
2021/03/08 08:09:51;;;;;;;12.20;2.72;;;20.30;37.40;;;;;;5038962;28;20094;-65
2021/03/08 08:12:34;;;;;;;9.05;2.30;;;20.30;37.80;;;;;;5035670;28;20247;-65
2021/03/08 08:15:11;;;;;;;17.25;2.67;;;20.30;37.80;;;;;;5035816;28;20546;-66
2021/03/08 08:17:40;;;;;;;18.40;2.42;;;20.20;37.90;;;;;;5033509;28;20152;-64
2021/03/08 08:20:09;;;;;;;9.88;1.83;;;20.20;38.00;;;;;;5038896;28;20561;-65
2021/03/08 08:22:41;;;;;;;9.48;1.75;;;20.20;37.40;;;;;;5036204;28;20100;-64
2021/03/08 08:25:11;;;;;;;11.38;2.00;;;20.20;37.20;;;;;;5036659;28;20074;-64
2021/03/08 08:27:38;;;;;;;11.23;1.70;;;20.20;37.20;;;;;;5037104;28;20160;-63
2021/03/08 08:30:06;;;;;;;10.45;2.15;;;20.20;37.00;;;;;;5034692;28;20081;-64
2021/03/08 08:32:53;;;;;;;10.77;1.75;;;20.10;36.80;;;;;;5036071;28;20081;-65
2021/03/08 08:35:23;;;;;;;9.10;1.65;;;20.00;36.80;;;;;;5036593;28;20084;-64
2021/03/08 08:38:08;;;;;;;11.88;1.58;;;19.90;36.60;;;;;;5035141;28;20062;-64
2021/03/08 08:40:36;;;;;;;8.18;1.50;;;19.90;37.10;;;;;;5034587;28;20078;-65
2021/03/08 08:43:15;;;;;;;8.43;1.90;;;19.90;36.00;;;;;;5032940;28;20068;-65
2021/03/08 08:45:47;;;;;;;5.18;1.70;;;19.80;35.60;;;;;;5038661;28;20429;-65
2021/03/08 08:48:14;;;;;;;9.07;1.45;;;19.80;35.40;;;;;;5037864;28;20124;-65
2021/03/08 08:50:58;;;;;;;11.60;1.60;;;19.80;35.10;;;;;;5036930;28;20077;-65
2021/03/08 08:53:39;;;;;;;16.67;2.00;;;19.80;35.00;;;;;;5047465;28;20117;-64
2021/03/08 08:56:07;;;;;;;16.83;2.00;;;19.70;35.10;;;;;;5039199;28;20176;-65
2021/03/08 08:58:52;;;;;;;14.88;1.95;;;19.70;35.50;;;;;;5033449;28;20074;-67
2021/03/08 09:04:10;;;;;;;18.58;2.55;;;19.50;36.00;;;;;;5037836;28;20140;-66
2021/03/08 09:06:56;;;;;;;9.25;1.80;;;19.50;36.40;;;;;;5032024;28;20526;-65
2021/03/08 09:09:31;;;;;;;26.40;2.30;;;19.40;36.40;;;;;;5039531;28;20717;-65
2021/03/08 09:12:04;;;;;;;25.27;2.55;;;19.40;37.00;;;;;;5037284;28;20082;-65
2021/03/08 09:14:37;;;;;;;14.48;2.00;;;19.30;37.20;;;;;;5036171;28;20078;-65
2021/03/08 09:17:31;;;;;;;19.60;2.20;;;19.30;37.40;;;;;;5032118;28;20085;-65
2021/03/08 09:19:58;;;;;;;15.35;2.08;;;19.20;37.20;;;;;;5036099;28;20070;-66
2021/03/08 09:22:30;;;;;;;;;;;19.00;37.30;;;;;;5040927;28;20089;-65
2021/03/08 09:24:58;;;;;;;13.45;1.88;;;19.00;37.70;;;;;;5038150;28;19962;-65
2021/03/08 09:27:26;;;;;;;21.30;2.88;;;19.00;37.90;;;;;;5042365;28;20080;-65
2021/03/08 09:29:54;;;;;;;31.58;2.83;;;18.90;38.00;;;;;;5056621;28;20101;-65
2021/03/08 09:32:21;;;;;;;14.73;2.03;;;18.90;38.10;;;;;;5047822;28;20140;-65
2021/03/08 09:34:48;;;;;;;20.45;2.13;;;18.80;38.20;;;;;;5047387;28;20073;-65
2021/03/08 09:37:17;;;;;;;17.55;2.53;;;18.70;38.60;;;;;;5044954;28;20081;-65
2021/03/08 09:39:54;;;;;;;18.45;2.33;;;18.60;39.00;;;;;;5047409;28;20084;-65
2021/03/08 09:42:21;;;;;;;19.00;2.25;;;18.60;39.00;;;;;;5040158;28;20511;-65
2021/03/08 09:44:49;;;;;;;21.05;2.20;;;18.50;39.00;;;;;;5046384;28;20070;-66
2021/03/08 09:47:16;;;;;;;26.48;1.88;;;18.40;39.40;;;;;;5039071;28;20120;-65
2021/03/08 09:49:51;;;;;;;12.15;2.17;;;18.40;39.50;;;;;;5043809;28;20121;-64
2021/03/08 09:52:41;;;;;;;23.48;2.47;;;18.50;39.40;;;;;;5044108;28;20108;-64
2021/03/08 09:55:10;;;;;;;16.83;2.25;;;18.40;39.60;;;;;;5045410;28;20101;-65
2021/03/08 09:57:41;;;;;;;13.70;1.95;;;18.40;40.00;;;;;;5042728;28;20070;-63
2021/03/08 10:00:10;;;;;;;17.75;2.20;;;18.30;40.30;;;;;;5044546;28;20081;-65
2021/03/08 10:02:37;;;;;;;21.02;2.83;;;18.30;40.00;;;;;;5047558;28;20074;-65
2021/03/08 10:05:05;;;;;;;16.98;1.92;;;18.20;40.10;;;;;;5042916;28;20077;-66
2021/03/08 10:07:32;;;;;;;17.73;2.67;;;18.20;40.60;;;;;;5046041;28;20074;-65
2021/03/08 10:10:13;;;;;;;16.02;2.38;;;18.00;40.80;;;;;;5047324;28;20120;-65
2021/03/08 10:12:40;;;;;;;12.93;1.90;;;17.90;42.20;;;;;;5047312;28;20136;-64
2021/03/08 10:15:09;;;;;;;17.00;2.35;;;17.70;42.10;;;;;;5046791;28;20112;-65
2021/03/08 10:17:51;;;;;;;14.68;2.17;;;17.70;42.80;;;;;;5046837;28;20081;-65
2021/03/08 10:20:17;;;;;;;12.70;2.00;;;17.70;43.20;;;;;;5044840;28;20077;-65
2021/03/08 10:22:44;;;;;;;;;;;17.60;43.40;;;;;;5049337;28;20093;-65
2021/03/08 10:25:27;;;;;;;14.55;2.42;;;17.60;43.50;;;;;;5047863;28;19997;-65
2021/03/08 10:28:03;;;;;;;14.95;1.95;;;17.60;43.70;;;;;;5044438;28;20088;-65
2021/03/08 10:30:36;;;;;;;12.00;1.90;;;17.60;43.70;;;;;;5044572;28;20105;-65
2021/03/08 10:33:07;;;;;;;17.20;2.05;;;17.50;44.00;;;;;;5045642;28;21675;-65
2021/03/08 10:35:44;;;;;;;14.20;2.15;;;17.30;44.10;;;;;;5045073;28;20074;-65
2021/03/08 10:38:12;;;;;;;11.82;2.47;;;17.20;44.80;;;;;;5044186;28;20073;-63
2021/03/08 10:40:40;;;;;;;19.35;2.92;;;17.10;45.00;;;;;;5043046;28;20092;-70
2021/03/08 10:43:08;;;;;;;17.90;3.63;;;17.20;45.30;;;;;;5045196;28;20084;-64
2021/03/08 10:45:35;;;;;;;23.05;2.65;;;17.20;45.00;;;;;;5044285;28;20090;-64
2021/03/08 10:48:12;;;;;;;19.42;2.60;;;17.20;45.10;;;;;;5045038;28;20094;-64
2021/03/08 10:50:43;;;;;;;11.57;2.83;;;17.10;45.30;;;;;;5041832;28;20073;-65
2021/03/08 10:53:11;;;;;;;15.23;2.88;;;17.00;45.60;;;;;;5041918;28;20187;-65
2021/03/08 10:55:41;;;;;;;18.83;2.95;;;16.80;46.00;;;;;;5040414;28;20211;-65
2021/03/08 10:58:08;;;;;;;12.00;3.03;;;16.80;46.00;;;;;;5041953;28;20078;-65
2021/03/08 11:00:35;;;;;;;16.50;3.70;;;16.80;46.30;;;;;;5044317;28;20534;-65
2021/03/08 11:03:02;;;;;;;17.00;3.92;;;16.80;46.20;;;;;;5041037;28;20120;-65
2021/03/08 11:05:29;;;;;;;13.73;2.97;;;16.80;46.00;;;;;;5044271;28;20454;-65
2021/03/08 11:07:57;;;;;;;13.23;2.67;;;16.80;46.00;;;;;;5042920;28;20097;-64
2021/03/08 11:10:41;;;;;;;15.45;2.38;;;16.80;45.40;;;;;;5041389;28;20078;-64
2021/03/08 11:13:08;;;;;;;17.50;2.67;;;16.80;45.00;;;;;;5041458;28;20070;-64
2021/03/08 11:15:36;;;;;;;10.50;2.17;;;16.60;44.40;;;;;;5038713;28;20115;-64
2021/03/08 11:18:21;;;;;;;11.25;1.90;;;16.60;44.50;;;;;;5039413;28;20066;-64
2021/03/08 11:20:47;;;;;;;11.75;1.63;;;16.60;44.70;;;;;;5036320;28;20500;-63
2021/03/08 11:23:24;;;;;;;8.05;2.08;;;16.70;44.00;;;;;;5037732;28;20070;-64
2021/03/08 11:25:51;;;;;;;11.80;2.10;;;16.70;43.10;;;;;;5037812;28;20171;-65
2021/03/08 11:28:18;;;;;;;12.10;1.88;;;16.60;42.70;;;;;;5035743;28;20086;-64
2021/03/08 11:30:50;;;;;;;5.03;1.75;;;16.60;41.70;;;;;;5040705;28;20081;-65
2021/03/08 11:33:17;;;;;;;7.63;2.15;;;16.60;41.10;;;;;;5038827;28;20070;-64
2021/03/08 11:35:51;;;;;;;7.50;1.65;;;16.60;39.40;;;;;;5037579;28;20455;-64
2021/03/08 11:38:23;;;;;;;6.07;1.55;;;16.60;38.90;;;;;;5039913;28;20188;-64
2021/03/08 11:40:51;;;;;;;5.45;1.30;;;16.70;38.30;;;;;;5038645;28;20074;-64
2021/03/08 11:43:20;;;;;;;15.85;3.33;;;16.80;36.60;;;;;;5041174;28;20074;-64
2021/03/08 11:45:51;;;;;;;16.50;1.83;;;16.90;35.40;;;;;;5045447;28;20074;-64
2021/03/08 11:48:25;;;;;;;27.40;3.00;;;17.10;35.30;;;;;;5040064;28;20098;-63
2021/03/08 11:50:52;;;;;;;29.42;2.95;;;17.20;37.60;;;;;;5042340;28;20078;-64
2021/03/08 11:53:19;;;;;;;29.75;2.75;;;17.20;38.90;;;;;;5042166;28;20508;-64
2021/03/08 11:55:46;;;;;;;20.73;3.00;;;17.20;39.50;;;;;;5041457;28;20107;-64
2021/03/08 11:58:12;;;;;;;29.48;2.20;;;17.20;39.60;;;;;;5056755;28;20109;-64
2021/03/08 12:00:38;;;;;;;;;;;17.30;39.60;;;;;;5042104;28;20120;-65
2021/03/08 12:03:05;;;;;;;19.20;2.75;;;17.20;39.90;;;;;;5041750;28;19957;-65
2021/03/08 12:05:32;;;;;;;14.35;1.98;;;17.10;39.90;;;;;;5043633;28;20085;-63
2021/03/08 12:07:58;;;;;;;9.20;1.65;;;17.00;40.30;;;;;;5041276;28;20077;-64
2021/03/08 12:10:24;;;;;;;;;;;17.00;41.00;;;;;;5038138;28;20535;-64
2021/03/08 12:12:51;;;;;;;6.57;1.52;;;17.00;41.50;;;;;;5040192;28;19966;-63
2021/03/08 12:15:17;;;;;;;;;;;16.90;41.90;;;;;;5038496;28;20078;-64
2021/03/08 12:17:43;;;;;;;7.95;1.80;;;16.70;42.70;;;;;;5056089;28;20044;-64
2021/03/08 12:20:10;;;;;;;;;;;16.70;43.50;;;;;;5038710;28;20526;-64
2021/03/08 12:22:38;;;;;;;7.20;1.50;;;16.60;44.10;;;;;;5034452;28;19958;-64
2021/03/08 12:25:07;;;;;;;5.80;1.60;;;16.60;44.70;;;;;;5036278;28;20084;-64
2021/03/08 12:27:35;;;;;;;7.88;1.50;;;16.50;45.30;;;;;;5037448;28;20069;-64
2021/03/08 12:30:01;;;;;;;9.93;1.90;;;16.50;45.80;;;;;;5036715;28;20105;-64
2021/03/08 12:32:27;;;;;;;;;;;16.40;46.30;;;;;;5039090;28;20646;-64
2021/03/08 12:34:54;;;;;;;6.60;1.40;;;16.30;47.00;;;;;;5036755;28;20415;-64
2021/03/08 12:37:20;;;;;;;;;;;16.20;47.30;;;;;;5056140;28;20082;-63
2021/03/08 12:39:46;;;;;;;5.57;1.83;;;16.10;47.60;;;;;;5038130;28;19961;-64
2021/03/08 12:42:13;;;;;;;;;;;16.10;48.00;;;;;;5041671;28;20113;-65
2021/03/08 12:44:39;;;;;;;8.23;1.45;;;16.00;48.30;;;;;;5038939;28;19957;-64
2021/03/08 12:47:05;;;;;;;;;;;16.00;48.50;;;;;;5036247;28;20450;-64
2021/03/08 12:49:32;;;;;;;12.77;2.25;;;15.90;48.60;;;;;;5038080;28;20127;-64
2021/03/08 12:51:58;;;;;;;;;;;15.90;48.70;;;;;;5039789;28;20102;-64
2021/03/08 12:54:24;;;;;;;6.90;2.00;;;15.80;48.80;;;;;;5034716;28;19988;-65
2021/03/08 12:56:51;;;;;;;;;;;15.80;49.10;;;;;;5036842;28;20086;-65
2021/03/08 12:59:17;;;;;;;5.07;1.63;;;15.90;49.10;;;;;;5054644;28;19972;-64
2021/03/08 13:01:43;;;;;;;;;;;15.80;49.20;;;;;;5043296;28;20465;-64